Time;durP1;ratioP1;P1;durP2;ratioP2;P2;SDS_P1;SDS_P2;PMS_P1;PMS_P2;Temp;Humidity;BMP_temperature;BMP_pressure;BME280_temperature;BME280_humidity;BME280_pressure;Samples;Min_cycle;Max_cycle;Signal;HPM_P1;HPM_P2
2022/03/16 07:50:04;;;;;;;45.03;19.13;;;;;;;38.24;40.57;101047.09;4988389;28;20949;-72
2022/03/16 07:52:31;;;;;;;55.73;19.90;;;;;;;37.81;40.64;101050.97;4970096;28;20963;-74
2022/03/16 07:54:57;;;;;;;42.07;17.47;;;;;;;37.94;40.60;101052.06;4975815;28;20433;-73
2022/03/16 07:57:25;;;;;;;42.17;19.03;;;;;;;37.99;40.30;101051.13;4975845;28;20536;-72
2022/03/16 07:59:51;;;;;;;42.73;17.03;;;;;;;38.07;38.50;101056.66;4971758;28;20437;-72
2022/03/16 08:02:18;;;;;;;48.47;16.53;;;;;;;38.21;37.74;101061.25;4965387;28;20523;-73
2022/03/16 08:04:44;;;;;;;36.03;17.47;;;;;;;38.27;36.73;101060.06;4981813;28;20453;-74
2022/03/16 08:07:10;;;;;;;58.20;21.40;;;;;;;38.13;37.38;101060.06;4975352;28;20425;-72
2022/03/16 08:09:36;;;;;;;54.07;20.10;;;;;;;38.26;38.15;101062.00;4975706;28;20414;-73
2022/03/16 08:12:04;;;;;;;40.27;14.90;;;;;;;38.38;37.88;101072.31;4974680;28;20966;-71
2022/03/16 08:14:30;;;;;;;36.43;13.77;;;;;;;38.44;38.49;101073.81;4975399;28;20430;-74
2022/03/16 08:16:56;;;;;;;33.63;14.47;;;;;;;38.29;38.51;101072.19;4975087;28;20876;-75
2022/03/16 08:19:22;;;;;;;42.13;17.53;;;;;;;38.31;39.04;101080.84;4975248;28;20457;-75
2022/03/16 08:21:49;;;;;;;44.67;14.23;;;;;;;38.35;39.30;101078.31;4975496;28;20429;-70
2022/03/16 08:24:16;;;;;;;42.07;14.37;;;;;;;38.50;39.34;101079.91;4992364;28;20441;-71
2022/03/16 08:26:42;;;;;;;26.13;13.50;;;;;;;38.56;39.62;101076.78;4974948;28;20539;-71
2022/03/16 08:29:08;;;;;;;36.67;14.07;;;;;;;38.61;39.61;101082.09;4992590;28;20437;-71
2022/03/16 08:31:35;;;;;;;50.03;17.30;;;;;;;38.69;40.05;101092.19;4979827;28;20896;-72
2022/03/16 08:34:02;;;;;;;38.70;16.37;;;;;;;38.74;39.98;101080.47;4994786;28;20482;-72
2022/03/16 08:36:29;;;;;;;42.20;14.83;;;;;;;38.68;40.42;101081.66;4978813;28;20453;-72
2022/03/16 08:38:55;;;;;;;41.27;16.67;;;;;;;38.74;40.74;101088.59;4943406;28;20436;-72
2022/03/16 08:41:22;;;;;;;30.17;12.27;;;;;;;38.84;40.05;101085.66;4974753;28;20517;-73
2022/03/16 08:43:48;;;;;;;40.90;16.30;;;;;;;38.91;40.49;101086.00;4975139;28;20800;-73
2022/03/16 08:46:14;;;;;;;35.57;13.97;;;;;;;38.91;40.94;101086.00;4991886;28;20776;-71
2022/03/16 08:48:40;;;;;;;30.13;14.83;;;;;;;38.92;41.29;101084.13;4992652;28;20457;-72
2022/03/16 08:51:08;;;;;;;25.90;14.77;;;;;;;38.99;41.80;101087.22;5002035;28;20467;-70
2022/03/16 08:53:37;;;;;;;41.53;14.40;;;;;;;38.98;42.59;101085.59;4994021;28;20528;-74
2022/03/16 08:56:04;;;;;;;38.03;13.37;;;;;;;38.85;43.44;101084.53;4994369;28;20572;-72
2022/03/16 08:58:30;;;;;;;32.50;10.20;;;;;;;38.45;44.31;101086.25;4978296;28;20911;-74
2022/03/16 09:00:56;;;;;;;32.73;12.73;;;;;;;38.11;45.27;101083.94;4994416;28;20425;-72
2022/03/16 09:03:23;;;;;;;42.73;11.63;;;;;;;37.94;45.19;101079.16;5012043;28;20876;-74
2022/03/16 09:05:49;;;;;;;33.90;16.13;;;;;;;38.11;45.45;101076.59;5011816;28;20799;-71
2022/03/16 09:08:18;;;;;;;31.27;12.07;;;;;;;38.10;45.31;101077.72;4994406;28;20942;-74
2022/03/16 09:10:44;;;;;;;38.93;15.00;;;;;;;38.11;45.34;101078.50;4994398;28;20429;-74
2022/03/16 09:13:10;;;;;;;39.30;13.97;;;;;;;38.22;45.51;101073.69;4978115;28;20436;-72
2022/03/16 09:15:36;;;;;;;42.37;14.80;;;;;;;38.03;45.79;101088.16;5011656;28;20418;-71
2022/03/16 09:18:03;;;;;;;41.73;11.57;;;;;;;38.05;45.61;101090.56;4994097;28;20832;-71
2022/03/16 09:20:29;;;;;;;43.33;12.50;;;;;;;38.02;45.01;101085.75;4994034;28;20642;-68
2022/03/16 09:22:55;;;;;;;37.00;11.87;;;;;;;38.20;45.29;101089.47;4980348;28;20432;-68
2022/03/16 09:25:25;;;;;;;39.23;12.60;;;;;;;38.10;45.79;101093.16;5031539;28;20428;-70
2022/03/16 09:27:51;;;;;;;39.23;14.40;;;;;;;38.25;45.49;101090.16;5013728;28;20880;-71
2022/03/16 09:30:18;;;;;;;28.47;9.70;;;;;;;38.21;44.87;101091.06;5035377;28;20396;-71
2022/03/16 09:32:45;;;;;;;28.20;12.00;;;;;;;38.21;44.98;101101.91;5016652;28;20473;-69
2022/03/16 09:35:11;;;;;;;33.53;12.73;;;;;;;38.38;45.36;101097.50;4996677;28;20451;-69
2022/03/16 09:37:38;;;;;;;38.97;14.27;;;;;;;38.58;44.45;101098.16;4978865;28;20535;-69
2022/03/16 09:40:05;;;;;;;31.90;12.37;;;;;;;38.67;44.25;101090.88;4996323;28;20479;-69
2022/03/16 09:42:31;;;;;;;32.93;10.97;;;;;;;38.34;44.86;101093.78;4997429;28;20953;-69
2022/03/16 09:45:02;;;;;;;23.67;11.23;;;;;;;38.48;44.21;101092.94;4997603;28;20440;-69
2022/03/16 09:47:32;;;;;;;38.80;14.40;;;;;;;38.60;43.93;101093.22;4997473;28;20520;-69
2022/03/16 09:49:59;;;;;;;28.53;11.73;;;;;;;38.61;43.69;101092.09;4981402;28;20415;-70
2022/03/16 09:52:26;;;;;;;27.90;14.13;;;;;;;38.80;44.11;101097.44;5015308;28;20895;-71
2022/03/16 09:54:55;;;;;;;42.57;12.43;;;;;;;38.31;44.06;101090.88;4996365;28;20462;-68
2022/03/16 09:57:22;;;;;;;36.00;11.50;;;;;;;38.56;44.19;101084.91;5014010;28;20510;-69
2022/03/16 09:59:48;;;;;;;34.70;13.40;;;;;;;38.51;44.18;101087.72;4997275;28;20482;-70
2022/03/16 10:02:17;;;;;;;37.23;15.20;;;;;;;38.61;44.08;101081.25;4997395;28;20482;-71
2022/03/16 10:04:46;;;;;;;30.13;10.03;;;;;;;38.97;43.93;101082.06;4996672;28;20507;-74
2022/03/16 10:07:13;;;;;;;23.63;10.33;;;;;;;38.74;44.29;101090.53;4995855;28;20555;-74
2022/03/16 10:15:18;;;;;;;24.67;9.87;;;;;;;38.74;43.79;101072.34;5011953;28;20403;-73
2022/03/16 10:17:50;;;;;;;31.33;10.93;;;;;;;38.80;43.53;101068.41;4995587;28;20452;-72
2022/03/16 10:20:28;;;;;;;42.93;11.20;;;;;;;38.58;44.44;101071.84;4995590;28;20448;-73
2022/03/16 10:22:59;;;;;;;28.03;9.13;;;;;;;38.72;43.92;101062.91;5012262;28;20416;-74
2022/03/16 10:25:30;;;;;;;29.37;12.80;;;;;;;38.79;43.66;101044.28;4995858;28;20495;-75
2022/03/16 10:28:16;;;;;;;29.77;10.37;;;;;;;38.64;43.71;101050.84;5013261;28;20405;-75
2022/03/16 10:31:05;;;;;;;22.87;9.30;;;;;;;38.53;44.18;101054.88;4997800;28;20796;-77
2022/03/16 10:33:33;;;;;;;30.10;9.07;;;;;;;38.43;44.28;101053.22;5011171;28;20428;-78
2022/03/16 10:36:14;;;;;;;33.03;10.07;;;;;;;38.70;44.60;101055.03;4996344;28;20529;-77
2022/03/16 10:38:58;;;;;;;27.30;9.70;;;;;;;38.68;43.61;101049.13;4995005;28;21113;-78
2022/03/16 10:47:17;;;;;;;25.10;9.67;;;;;;;39.18;42.66;101036.28;5011174;28;20391;-77
2022/03/16 10:49:45;;;;;;;20.63;8.97;;;;;;;39.05;43.20;101037.16;4994352;28;20428;-76
2022/03/16 10:52:22;;;;;;;33.80;11.43;;;;;;;39.12;42.90;101029.38;5006493;28;20962;-77
2022/03/16 10:54:49;;;;;;;26.77;9.93;;;;;;;38.99;43.11;101032.97;4995297;28;20528;-80
2022/03/16 10:57:15;;;;;;;24.07;11.37;;;;;;;39.08;42.90;101020.22;5013526;28;20536;-78
2022/03/16 10:59:43;;;;;;;31.17;11.90;;;;;;;38.88;43.57;101018.03;4995887;28;20809;-78
2022/03/16 11:02:14;;;;;;;33.73;10.27;;;;;;;38.77;43.73;101017.47;5010680;28;20416;-77
2022/03/16 11:04:43;;;;;;;20.53;8.10;;;;;;;38.86;43.33;101012.13;4994927;28;20428;-80
2022/03/16 11:07:10;;;;;;;33.60;9.07;;;;;;;39.18;42.90;101011.88;4995762;28;20427;-74
2022/03/16 11:09:38;;;;;;;31.20;10.03;;;;;;;38.91;42.76;101006.56;4977377;28;20433;-73
2022/03/16 11:14:51;;;;;;;32.90;9.83;;;;;;;39.15;42.17;101007.03;5013956;28;20396;-69
2022/03/16 11:17:18;;;;;;;28.10;8.77;;;;;;;39.32;42.37;100992.78;4995082;28;20458;-71
2022/03/16 11:19:48;;;;;;;23.90;7.90;;;;;;;39.16;42.52;101005.94;4994190;28;20484;-73
2022/03/16 11:24:15;;;;;;;26.77;9.47;;;;;;;39.35;42.05;100992.16;4995626;28;20428;-72
2022/03/16 11:25:27;;;;;;;30.97;11.00;;;;;;;39.40;42.12;100986.56;4993775;28;20458;-72
2022/03/16 11:27:56;;;;;;;20.07;8.60;;;;;;;39.31;42.63;100988.47;4976381;28;20425;-72
2022/03/16 11:30:37;;;;;;;30.63;10.40;;;;;;;39.37;42.03;100979.06;4982265;28;20512;-73
2022/03/16 11:33:13;;;;;;;23.00;9.13;;;;;;;39.52;42.03;100975.13;4995687;28;20453;-74
2022/03/16 11:35:44;;;;;;;30.13;12.40;;;;;;;39.47;42.39;100972.53;4995170;28;20436;-79
2022/03/16 11:38:15;;;;;;;30.07;10.47;;;;;;;39.53;42.40;100976.72;4995701;28;20433;-77
2022/03/16 11:40:45;;;;;;;33.20;14.03;;;;;;;39.37;41.94;100970.13;4995520;28;20420;-73
2022/03/16 11:43:16;;;;;;;21.90;11.03;;;;;;;39.47;41.34;100967.13;4963334;28;20452;-73
2022/03/16 11:45:51;;;;;;;23.07;10.80;;;;;;;39.46;41.85;100970.94;5013175;28;20915;-72
2022/03/16 11:51:13;;;;;;;28.63;10.30;;;;;;;39.29;42.24;100962.75;5011991;28;20505;-75
2022/03/16 11:56:39;;;;;;;32.73;13.93;;;;;;;39.36;41.62;100950.34;5012345;28;20534;-75
2022/03/16 11:59:16;;;;;;;25.63;10.00;;;;;;;39.22;41.60;100945.00;5012919;28;20496;-75
2022/03/16 12:01:52;;;;;;;19.00;8.57;;;;;;;39.39;42.01;100946.97;4995281;28;20416;-75
2022/03/16 12:04:39;;;;;;;39.40;10.47;;;;;;;39.25;42.42;100938.16;4994977;28;20456;-73
2022/03/16 12:07:14;;;;;;;25.90;9.40;;;;;;;39.48;42.28;100928.81;4994877;28;20514;-74
2022/03/16 12:09:54;;;;;;;27.67;10.77;;;;;;;39.34;41.14;100925.41;4977909;28;20833;-75
2022/03/16 12:15:15;;;;;;;24.97;8.50;;;;;;;39.46;41.79;100917.47;5001450;28;20511;-74
2022/03/16 12:17:54;;;;;;;30.90;9.70;;;;;;;39.37;41.97;100915.84;4994570;28;20491;-74
2022/03/16 12:20:23;;;;;;;19.53;7.70;;;;;;;39.45;41.92;100909.63;4992863;28;20413;-74
2022/03/16 12:22:55;;;;;;;28.97;11.20;;;;;;;39.25;42.36;100900.16;4975703;28;20425;-72
2022/03/16 12:25:27;;;;;;;24.67;9.90;;;;;;;39.38;42.29;100893.03;4975571;28;20440;-72
2022/03/16 12:30:46;;;;;;;30.87;10.77;;;;;;;39.67;41.82;100873.47;5014222;28;20508;-75
2022/03/16 12:33:22;;;;;;;27.77;8.53;;;;;;;39.65;41.73;100876.47;4994064;28;20948;-76
2022/03/16 12:36:01;;;;;;;27.83;8.60;;;;;;;39.77;41.58;100862.28;4994109;28;20428;-75
2022/03/16 12:38:31;;;;;;;37.40;10.90;;;;;;;39.54;41.70;100867.03;4993605;28;20436;-74
2022/03/16 12:43:52;;;;;;;30.30;9.70;;;;;;;39.36;42.19;100859.97;5010531;28;20922;-75
2022/03/16 12:46:47;;;;;;;30.47;9.67;;;;;;;39.58;41.34;100848.97;4989176;28;20432;-74
2022/03/16 12:49:16;;;;;;;36.47;12.30;;;;;;;39.62;41.26;100849.19;4993710;28;20431;-72
2022/03/16 12:52:00;;;;;;;35.10;11.07;;;;;;;39.45;42.27;100842.56;4993779;28;20839;-73
2022/03/16 12:54:36;;;;;;;29.77;9.00;;;;;;;39.77;41.88;100840.56;4992874;28;20432;-74
2022/03/16 12:57:09;;;;;;;30.73;11.03;;;;;;;39.74;41.38;100830.34;5006789;28;20468;-73
2022/03/16 12:59:39;;;;;;;16.60;7.90;;;;;;;39.83;41.29;100827.63;5008964;28;20431;-72
2022/03/16 13:02:10;;;;;;;29.67;9.10;;;;;;;39.58;41.74;100826.47;4993912;28;20956;-73
2022/03/16 13:04:37;;;;;;;23.60;8.53;;;;;;;39.53;41.74;100815.75;4995212;28;20542;-73
2022/03/16 13:07:05;;;;;;;17.17;10.30;;;;;;;39.78;41.10;100809.59;4997998;28;20424;-73
2022/03/16 13:09:34;;;;;;;19.77;8.80;;;;;;;39.86;41.62;100810.69;5014981;28;20484;-71
2022/03/16 13:12:08;;;;;;;21.33;10.20;;;;;;;39.72;41.19;100798.09;5015238;28;20444;-70
2022/03/16 13:14:38;;;;;;;25.40;11.13;;;;;;;39.69;41.60;100792.47;4997650;28;20423;-72
2022/03/16 13:17:07;;;;;;;27.77;10.50;;;;;;;39.44;41.87;100786.69;4997108;28;20954;-72
2022/03/16 13:19:34;;;;;;;39.57;11.90;;;;;;;39.70;41.72;100785.94;4997272;28;20463;-72
2022/03/16 13:22:16;;;;;;;17.53;8.87;;;;;;;39.67;41.78;100775.72;4997674;28;20424;-73
2022/03/16 13:24:51;;;;;;;28.83;9.90;;;;;;;39.71;41.57;100774.75;4995904;28;20444;-73
2022/03/16 13:27:20;;;;;;;24.97;9.87;;;;;;;39.56;41.63;100768.97;4994620;28;20830;-72
2022/03/16 13:29:52;;;;;;;29.27;10.40;;;;;;;39.59;41.89;100752.84;4996639;28;20527;-73
2022/03/16 13:32:27;;;;;;;24.23;12.67;;;;;;;39.85;41.13;100750.16;4994814;28;20939;-71
2022/03/16 13:34:54;;;;;;;34.97;10.93;;;;;;;39.91;41.45;100742.63;4993744;28;20443;-71
2022/03/16 13:37:27;;;;;;;20.40;8.87;;;;;;;39.99;41.23;100749.94;4996465;28;20981;-71
2022/03/16 13:40:00;;;;;;;31.23;10.17;;;;;;;39.86;41.73;100740.09;4993935;28;20460;-74
2022/03/16 13:42:31;;;;;;;31.10;10.03;;;;;;;39.89;41.49;100739.41;4996386;28;20452;-72
2022/03/16 13:45:20;;;;;;;38.83;10.93;;;;;;;39.88;41.86;100735.91;4994238;28;20434;-72
2022/03/16 13:48:12;;;;;;;37.90;13.90;;;;;;;39.89;41.38;100723.13;4997323;28;20490;-74
2022/03/16 13:50:41;;;;;;;25.10;12.43;;;;;;;40.08;41.25;100725.50;4996044;28;20460;-72
2022/03/16 13:53:22;;;;;;;28.10;11.47;;;;;;;39.78;41.43;100724.56;4994447;28;20444;-74
2022/03/16 13:55:51;;;;;;;26.40;8.97;;;;;;;39.85;41.28;100720.28;4994545;28;20779;-74
2022/03/16 13:58:25;;;;;;;31.67;11.37;;;;;;;39.94;41.83;100718.31;5014618;28;20416;-72
2022/03/16 14:00:58;;;;;;;24.10;9.40;;;;;;;39.89;40.65;100713.06;5009584;28;20421;-73
2022/03/16 14:03:28;;;;;;;36.67;10.20;;;;;;;39.71;41.50;100704.16;4996136;28;20554;-72
2022/03/16 14:05:56;;;;;;;22.20;8.47;;;;;;;39.88;41.10;100705.25;4975764;28;20471;-71
2022/03/16 14:08:23;;;;;;;22.13;8.47;;;;;;;40.00;41.30;100697.22;4995865;28;20440;-71
2022/03/16 14:10:51;;;;;;;26.63;10.93;;;;;;;39.73;41.96;100699.22;4996600;28;20949;-72
2022/03/16 14:13:17;;;;;;;33.70;9.73;;;;;;;39.89;41.23;100693.25;4996781;28;20954;-73
2022/03/16 14:15:46;;;;;;;30.80;9.37;;;;;;;39.71;41.42;100690.56;5013277;28;20404;-74
2022/03/16 14:18:15;;;;;;;33.77;10.53;;;;;;;39.58;41.56;100683.38;4996718;28;20439;-74
2022/03/16 14:20:51;;;;;;;32.27;8.67;;;;;;;39.80;41.37;100684.34;4995343;28;20433;-71
2022/03/16 14:23:18;;;;;;;26.83;8.93;;;;;;;40.05;41.17;100682.69;4995773;28;20486;-74
2022/03/16 14:25:56;;;;;;;32.73;10.70;;;;;;;39.93;41.30;100675.97;5013729;28;20444;-73
2022/03/16 14:28:24;;;;;;;33.67;11.57;;;;;;;39.96;41.06;100679.97;4961888;28;20462;-72
2022/03/16 14:30:52;;;;;;;23.90;10.80;;;;;;;39.94;41.03;100666.72;5012003;28;20409;-72
2022/03/16 14:33:29;;;;;;;29.40;10.70;;;;;;;39.99;40.78;100669.25;4996066;28;20942;-71
2022/03/16 14:36:02;;;;;;;22.60;10.13;;;;;;;40.10;41.30;100668.94;5013829;28;20470;-71
2022/03/16 14:38:29;;;;;;;30.43;9.03;;;;;;;40.07;40.80;100659.50;5000948;28;20431;-72
2022/03/16 14:40:56;;;;;;;20.97;7.50;;;;;;;39.76;41.52;100665.97;4996675;28;20456;-70
2022/03/16 14:43:30;;;;;;;27.90;8.60;;;;;;;39.95;40.52;100653.91;4996524;28;20425;-71
2022/03/16 14:45:58;;;;;;;23.63;10.67;;;;;;;39.85;41.29;100654.28;4996983;28;20426;-70
2022/03/16 14:48:24;;;;;;;31.97;9.93;;;;;;;40.12;40.49;100655.81;4996527;28;20427;-71
2022/03/16 14:50:52;;;;;;;13.53;8.20;;;;;;;39.91;41.05;100656.50;4996387;28;20479;-72
2022/03/16 14:53:20;;;;;;;14.60;8.00;;;;;;;39.61;41.25;100662.97;4996530;28;20416;-72
2022/03/16 14:55:46;;;;;;;29.57;11.33;;;;;;;39.75;41.04;100652.72;5014116;28;20405;-70
2022/03/16 14:58:13;;;;;;;20.60;8.53;;;;;;;39.81;41.04;100647.91;5013309;28;20432;-69
2022/03/16 15:00:39;;;;;;;21.03;8.53;;;;;;;39.90;40.77;100641.34;4995895;28;20992;-71
2022/03/16 15:03:06;;;;;;;25.40;8.10;;;;;;;40.13;40.48;100643.81;4995479;28;20424;-72
2022/03/16 15:05:33;;;;;;;30.30;9.87;;;;;;;39.90;41.01;100646.78;4995729;28;20424;-71
2022/03/16 15:07:59;;;;;;;26.10;8.50;;;;;;;39.86;40.64;100643.09;5012964;28;20443;-70
2022/03/16 15:10:26;;;;;;;13.83;7.80;;;;;;;40.05;40.29;100633.78;4977582;28;20905;-71
2022/03/16 15:12:52;;;;;;;42.07;9.40;;;;;;;40.22;39.89;100639.94;4995673;28;20428;-70
2022/03/16 15:15:19;;;;;;;25.13;7.67;;;;;;;40.23;39.80;100630.66;4973826;28;20958;-70
2022/03/16 15:17:46;;;;;;;25.40;10.40;;;;;;;40.41;39.41;100633.28;5010003;28;20456;-72
2022/03/16 15:20:13;;;;;;;25.67;10.03;;;;;;;40.44;39.58;100630.69;4995272;28;20433;-71
2022/03/16 15:22:39;;;;;;;17.27;6.90;;;;;;;40.20;40.00;100634.03;5013165;28;20448;-70
2022/03/16 15:25:06;;;;;;;18.87;7.77;;;;;;;40.20;39.87;100634.03;4995120;28;20920;-71
2022/03/16 15:27:32;;;;;;;26.43;10.40;;;;;;;40.36;39.88;100622.59;4992909;28;20424;-72
2022/03/16 15:29:59;;;;;;;25.10;9.77;;;;;;;40.23;39.52;100636.09;5012620;28;20510;-70
2022/03/16 15:32:28;;;;;;;39.43;9.73;;;;;;;40.17;39.44;100631.97;4995903;28;20448;-70
2022/03/16 15:34:55;;;;;;;28.57;10.53;;;;;;;40.32;39.58;100636.03;4995636;28;20416;-70
2022/03/16 15:37:23;;;;;;;28.37;9.90;;;;;;;40.16;39.37;100630.38;4979388;28;20472;-73
2022/03/16 15:42:46;;;;;;;22.03;9.33;;;;;;;40.42;38.82;100624.81;5013512;28;20438;-71
2022/03/16 15:45:15;;;;;;;30.37;11.70;;;;;;;39.95;39.63;100621.31;4995311;28;20432;-70
2022/03/16 15:47:42;;;;;;;26.13;8.33;;;;;;;40.15;40.25;100633.44;4995173;28;20408;-70
2022/03/16 15:50:11;;;;;;;20.43;11.03;;;;;;;40.28;39.95;100622.34;4994206;28;21105;-71
2022/03/16 15:52:38;;;;;;;26.83;11.70;;;;;;;40.17;40.04;100625.75;4995200;28;20425;-71
2022/03/16 15:55:10;;;;;;;28.73;10.80;;;;;;;40.20;39.97;100615.00;4995197;28;20412;-71
2022/03/16 15:57:40;;;;;;;24.87;7.83;;;;;;;40.47;39.56;100623.81;4995197;28;20453;-70
2022/03/16 16:00:08;;;;;;;31.87;9.83;;;;;;;40.36;40.07;100634.28;5012980;28;20411;-70
2022/03/16 16:02:35;;;;;;;22.23;9.23;;;;;;;40.48;39.61;100618.09;4979203;28;20439;-70
2022/03/16 16:05:02;;;;;;;29.83;10.47;;;;;;;40.21;39.62;100622.06;4994294;28;20420;-71
2022/03/16 16:07:31;;;;;;;19.47;9.20;;;;;;;40.44;39.27;100617.09;5011277;28;20412;-70
2022/03/16 16:10:01;;;;;;;26.87;10.87;;;;;;;40.57;40.16;100615.28;4993619;28;20444;-70
2022/03/16 16:12:27;;;;;;;27.70;9.53;;;;;;;40.87;39.34;100613.31;4993660;28;20417;-70
2022/03/16 16:14:55;;;;;;;35.70;12.10;;;;;;;40.89;39.00;100605.63;4993886;28;20941;-70
2022/03/16 16:17:22;;;;;;;40.70;12.87;;;;;;;40.70;38.61;100597.94;4993633;28;20992;-72
2022/03/16 16:19:48;;;;;;;32.10;11.20;;;;;;;40.68;38.95;100599.38;5011222;28;20417;-71
2022/03/16 16:22:15;;;;;;;21.27;10.57;;;;;;;40.71;39.07;100599.53;4993581;28;20416;-71
2022/03/16 16:24:41;;;;;;;34.43;10.53;;;;;;;40.75;38.15;100600.44;5011076;28;20443;-73
2022/03/16 16:27:07;;;;;;;20.70;10.37;;;;;;;40.87;38.33;100597.00;4993399;28;20421;-71
2022/03/16 16:29:40;;;;;;;21.77;9.37;;;;;;;40.62;38.65;100598.78;5012388;28;20408;-70
2022/03/16 16:32:07;;;;;;;30.97;10.30;;;;;;;40.40;39.20;100607.25;5010661;28;20444;-70
2022/03/16 16:34:33;;;;;;;31.23;10.97;;;;;;;40.37;39.66;100600.53;4983008;28;20432;-70
2022/03/16 16:37:00;;;;;;;30.50;11.60;;;;;;;40.60;39.29;100606.50;4992822;28;20842;-70
2022/03/16 16:39:27;;;;;;;26.30;9.80;;;;;;;40.58;39.27;100600.59;4993210;28;20514;-70
2022/03/16 16:41:54;;;;;;;26.23;10.10;;;;;;;40.47;39.15;100602.06;5011516;28;20458;-72
2022/03/16 16:44:21;;;;;;;23.63;10.00;;;;;;;40.47;39.54;100611.06;4993144;28;20542;-70
2022/03/16 16:46:47;;;;;;;30.70;12.23;;;;;;;40.59;38.93;100606.81;4993702;28;20519;-70
2022/03/16 16:49:16;;;;;;;31.53;13.30;;;;;;;40.73;38.99;100620.94;4994751;28;20479;-70
2022/03/16 16:51:43;;;;;;;25.57;11.50;;;;;;;40.44;39.44;100614.38;4993627;28;20503;-71
2022/03/16 16:54:10;;;;;;;35.63;11.10;;;;;;;40.69;39.02;100612.66;5011590;28;20427;-72
2022/03/16 16:56:36;;;;;;;24.70;9.00;;;;;;;40.67;38.61;100605.97;4994173;28;20966;-73
2022/03/16 16:59:02;;;;;;;57.67;13.37;;;;;;;40.66;38.51;100616.03;4993917;28;20432;-71
2022/03/16 17:01:29;;;;;;;38.03;13.07;;;;;;;40.49;39.14;100624.31;4994431;28;20508;-70
2022/03/16 17:03:56;;;;;;;39.47;11.67;;;;;;;40.51;39.20;100611.19;5011911;28;20408;-72
2022/03/16 17:06:22;;;;;;;26.37;9.77;;;;;;;40.69;38.66;100625.44;4991022;28;20791;-70
2022/03/16 17:08:49;;;;;;;27.83;11.90;;;;;;;40.79;38.71;100638.66;4996687;28;20535;-70
2022/03/16 17:11:15;;;;;;;32.20;9.80;;;;;;;40.84;38.96;100637.69;4993770;28;20789;-71
2022/03/16 17:13:41;;;;;;;25.77;10.67;;;;;;;40.95;37.95;100636.97;4976892;28;20425;-73
2022/03/16 17:16:07;;;;;;;31.73;9.97;;;;;;;40.97;38.28;100636.63;4993680;28;20421;-72
2022/03/16 17:18:36;;;;;;;24.23;13.20;;;;;;;40.78;37.90;100639.78;5011586;28;20902;-69
2022/03/16 17:21:07;;;;;;;24.10;12.03;;;;;;;40.41;39.23;100634.09;4991809;28;20404;-70
2022/03/16 17:23:35;;;;;;;44.17;20.03;;;;;;;40.32;39.50;100627.09;4993391;28;20420;-70
2022/03/16 17:26:04;;;;;;;30.07;12.13;;;;;;;40.48;39.20;100637.13;4990864;28;20432;-72
2022/03/16 17:28:31;;;;;;;25.30;11.40;;;;;;;40.47;39.39;100640.97;4993596;28;20923;-72
2022/03/16 17:30:57;;;;;;;27.53;11.83;;;;;;;40.49;39.00;100633.25;4993535;28;20416;-70
2022/03/16 17:33:25;;;;;;;54.10;14.67;;;;;;;40.22;39.77;100637.22;4994156;28;20417;-71
2022/03/16 17:35:52;;;;;;;28.83;12.60;;;;;;;40.42;39.63;100656.63;4994470;28;20459;-72
2022/03/16 17:38:22;;;;;;;29.13;11.57;;;;;;;40.47;39.51;100640.13;4993641;28;20988;-71
2022/03/16 17:40:51;;;;;;;46.20;14.83;;;;;;;40.46;39.60;100647.50;4993919;28;20519;-71
2022/03/16 17:46:09;;;;;;;40.53;13.23;;;;;;;40.45;39.11;100664.13;4981111;28;20849;-72
2022/03/16 17:48:35;;;;;;;29.93;14.10;;;;;;;40.46;39.40;100674.69;5011707;28;20405;-72
2022/03/16 17:51:07;;;;;;;24.03;14.97;;;;;;;40.38;39.63;100685.56;4997112;28;20872;-72
2022/03/16 17:53:33;;;;;;;52.37;15.57;;;;;;;40.13;39.50;100685.38;4997583;28;20926;-69
2022/03/16 17:59:06;;;;;;;42.40;12.90;;;;;;;39.88;40.26;100694.38;4954732;29;20488;-70
2022/03/16 18:01:33;;;;;;;34.30;13.87;;;;;;;39.92;40.48;100696.13;4954628;29;20482;-71
2022/03/16 18:04:01;;;;;;;27.37;12.37;;;;;;;39.89;40.53;100706.81;4976349;28;20831;-72
2022/03/16 18:06:28;;;;;;;34.53;15.40;;;;;;;40.08;40.39;100710.00;4996706;28;20437;-72
2022/03/16 18:08:55;;;;;;;25.40;13.23;;;;;;;40.12;40.02;100710.94;4997272;28;20425;-72
2022/03/16 18:14:06;;;;;;;48.43;15.90;;;;;;;40.16;40.01;100727.41;5015216;28;20396;-70
2022/03/16 18:16:33;;;;;;;34.10;13.20;;;;;;;39.96;39.69;100745.16;5016668;28;20559;-70
2022/03/16 18:18:59;;;;;;;31.90;11.93;;;;;;;40.02;39.62;100747.41;4995724;28;20867;-71
2022/03/16 18:21:26;;;;;;;35.50;13.73;;;;;;;40.16;39.80;100747.22;5012302;28;20420;-72
2022/03/16 18:23:52;;;;;;;42.70;13.40;;;;;;;40.15;39.62;100745.63;5014311;28;20393;-70
2022/03/16 18:26:19;;;;;;;51.40;14.70;;;;;;;40.12;39.50;100749.00;4997037;28;20448;-70
2022/03/16 18:28:46;;;;;;;22.80;13.00;;;;;;;40.22;39.41;100748.66;4980698;28;20427;-70
2022/03/16 18:31:13;;;;;;;32.60;13.17;;;;;;;40.11;39.46;100746.59;5014136;28;20466;-70
2022/03/16 18:33:39;;;;;;;35.27;13.87;;;;;;;40.07;39.35;100741.00;4973564;28;20433;-71
2022/03/16 18:36:06;;;;;;;25.83;12.93;;;;;;;40.12;39.22;100743.56;4996508;28;20440;-71
2022/03/16 18:38:33;;;;;;;32.10;11.63;;;;;;;40.18;39.42;100753.13;5014099;28;20760;-73
2022/03/16 18:41:04;;;;;;;39.57;11.77;;;;;;;40.16;39.33;100760.81;5013522;28;20416;-70
2022/03/16 18:43:36;;;;;;;34.87;14.57;;;;;;;40.10;39.67;100764.03;4977126;28;20864;-73
2022/03/16 18:46:07;;;;;;;24.47;13.23;;;;;;;40.23;40.24;100771.19;4977238;28;20504;-74
2022/03/16 18:48:34;;;;;;;40.53;17.20;;;;;;;40.20;39.87;100774.53;4977126;28;20421;-74
2022/03/16 18:51:13;;;;;;;33.43;14.57;;;;;;;39.96;39.77;100791.34;5009524;28;20535;-74
2022/03/16 18:53:40;;;;;;;33.73;13.67;;;;;;;40.04;40.18;100793.28;4996432;28;20428;-72
2022/03/16 18:56:06;;;;;;;45.37;11.63;;;;;;;40.06;39.72;100807.34;4996230;28;20424;-71
2022/03/16 18:58:32;;;;;;;38.90;15.60;;;;;;;40.03;40.19;100813.41;5014083;28;20409;-71
2022/03/16 19:01:01;;;;;;;40.83;15.53;;;;;;;40.13;39.74;100809.56;4996131;28;20888;-72
2022/03/16 19:03:28;;;;;;;29.33;10.73;;;;;;;40.13;39.17;100812.28;4980619;28;20424;-73
2022/03/16 19:05:54;;;;;;;29.47;12.97;;;;;;;40.09;39.54;100814.84;4996586;28;20408;-72
2022/03/16 19:08:20;;;;;;;38.57;13.60;;;;;;;40.05;39.71;100818.53;5013836;28;20875;-73
2022/03/16 19:13:45;;;;;;;30.47;12.87;;;;;;;40.09;39.60;100833.88;4996126;28;20409;-72
2022/03/16 19:13:48;;;;;;;22.83;9.80;;;;;;;40.06;39.17;100844.56;4999177;28;20404;-75
2022/03/16 19:16:20;;;;;;;40.70;16.30;;;;;;;40.10;39.67;100848.25;4996045;28;20432;-76
2022/03/16 19:18:47;;;;;;;48.07;15.40;;;;;;;39.97;39.53;100847.28;5013636;28;20907;-76
2022/03/16 19:21:18;;;;;;;39.80;16.97;;;;;;;40.07;39.28;100843.44;4995900;28;20420;-73
2022/03/16 19:23:45;;;;;;;31.97;13.57;;;;;;;40.08;39.38;100862.13;4995670;28;20472;-74
2022/03/16 19:26:14;;;;;;;34.80;11.40;;;;;;;40.00;39.44;100871.06;4994491;28;20985;-74
2022/03/16 19:28:41;;;;;;;29.27;11.80;;;;;;;40.06;39.33;100877.97;4994393;28;20430;-73
2022/03/16 19:31:09;;;;;;;34.27;13.07;;;;;;;40.02;39.66;100877.81;4992052;28;20424;-74
2022/03/16 19:33:36;;;;;;;36.80;15.17;;;;;;;40.06;39.96;100880.69;5011982;28;20408;-74
2022/03/16 19:36:04;;;;;;;38.80;17.43;;;;;;;40.03;39.50;100871.25;4993970;28;21017;-74
2022/03/16 19:38:33;;;;;;;60.80;18.50;;;;;;;40.08;39.39;100864.84;4994438;28;20424;-74
2022/03/16 19:40:59;;;;;;;22.13;13.57;;;;;;;40.12;38.74;100863.09;4992645;28;20425;-73
2022/03/16 19:43:26;;;;;;;36.60;13.53;;;;;;;39.93;39.70;100876.19;4993253;28;20436;-73
2022/03/16 19:45:54;;;;;;;42.70;14.50;;;;;;;39.89;39.69;100875.22;4991692;28;20460;-73
2022/03/16 19:48:22;;;;;;;32.83;13.10;;;;;;;39.91;39.68;100873.81;4990406;28;20776;-73
2022/03/16 19:50:48;;;;;;;31.27;14.50;;;;;;;39.95;39.44;100877.47;4994586;28;20818;-73